Hay Miller Street, Australia
Current Conditions -  °F | °C
As of 7:00 AM on Monday 26 Jan 2015 (Local Time) from YGTH Reporting Station
Clear Clear  
Wind Chill: 57°   Ceiling: Unl
Heat Index: 57°   Visibility: 6mi
Dew Point: 41°   Wind: 10mph
Humidity: 55%   Direction: 180°S
Pressure: 29.88"   Gusts: NA
Location:  34.52°S, 144.86°E
Report Text: YGTH 252000Z AUTO 18009KT 9999 // NCD 14/05 Q1012
Loading
Personal Weather Stations






























Interactive Weather Map New forecast layout! Learn more

10-Day Weather Forecast

Advertisements
Track Severe Weather on mobile